createdAt,value
2023-03-29T00:01:54.605Z,50.41
2023-03-29T00:04:27.822Z,52.86
2023-03-29T00:06:57.227Z,54.61
2023-03-29T00:09:26.943Z,55.57
2023-03-29T00:11:55.932Z,56.80
2023-03-29T00:14:30.787Z,57.76
2023-03-29T00:17:00.383Z,58.19
2023-03-29T00:19:32.239Z,58.15
2023-03-29T00:22:02.976Z,59.35
2023-03-29T00:24:32.282Z,59.97
2023-03-29T00:27:01.684Z,60.31
2023-03-29T00:29:30.748Z,60.73
2023-03-29T00:31:59.688Z,60.75
2023-03-29T00:34:31.951Z,61.36
2023-03-29T00:37:00.951Z,61.65
2023-03-29T00:39:30.970Z,61.71
2023-03-29T00:41:59.873Z,62.03
2023-03-29T00:44:59.869Z,67.91
2023-03-29T00:47:45.003Z,79.19
2023-03-29T00:50:18.872Z,65.20
2023-03-29T00:53:07.351Z,52.81
2023-03-29T00:55:43.003Z,49.81
2023-03-29T00:58:16.034Z,51.88
2023-03-29T01:00:52.302Z,54.23
2023-03-29T01:03:28.193Z,55.56
2023-03-29T01:06:02.560Z,56.43
2023-03-29T01:08:47.749Z,57.47
2023-03-29T01:11:41.135Z,57.57
2023-03-29T01:14:28.808Z,58.12
2023-03-29T01:16:58.028Z,59.25
2023-03-29T01:19:33.099Z,60.11
2023-03-29T01:22:26.186Z,59.74
2023-03-29T01:25:04.294Z,60.16
2023-03-29T01:27:56.114Z,59.94
2023-03-29T01:30:37.699Z,60.90
2023-03-29T01:33:13.146Z,61.20
2023-03-29T01:35:46.907Z,61.55
2023-03-29T01:38:32.425Z,61.73
2023-03-29T01:41:03.904Z,62.08
2023-03-29T01:43:57.003Z,71.86
2023-03-29T01:46:36.522Z,78.85
2023-03-29T01:49:22.543Z,66.23
2023-03-29T01:52:03.924Z,52.82
2023-03-29T01:54:41.825Z,49.85
2023-03-29T01:57:14.553Z,52.07
2023-03-29T01:59:45.995Z,54.17
2023-03-29T02:02:18.848Z,55.81
2023-03-29T02:04:53.833Z,56.45
2023-03-29T02:07:26.867Z,57.34
2023-03-29T02:09:57.530Z,58.15
2023-03-29T02:12:27.220Z,58.76
2023-03-29T02:14:58.820Z,59.06
2023-03-29T02:17:28.579Z,59.15
2023-03-29T02:20:10.309Z,59.59
2023-03-29T02:22:47.200Z,60.45
2023-03-29T02:25:17.628Z,60.66
2023-03-29T02:27:46.685Z,60.73
2023-03-29T02:30:19.354Z,61.21
2023-03-29T02:33:05.984Z,61.32
2023-03-29T02:35:41.038Z,63.64
2023-03-29T02:38:14.817Z,80.46
2023-03-29T02:40:47.004Z,71.59
2023-03-29T02:43:17.203Z,60.57
2023-03-29T02:45:47.434Z,53.37
2023-03-29T02:48:20.823Z,49.86
2023-03-29T02:50:54.121Z,43.12
2023-03-29T02:53:29.235Z,44.26
2023-03-29T02:56:02.395Z,47.42
2023-03-29T02:58:31.957Z,50.09
2023-03-29T03:01:02.532Z,51.86
2023-03-29T03:03:32.092Z,53.41
2023-03-29T03:06:01.859Z,54.84
2023-03-29T03:08:31.225Z,55.34
2023-03-29T03:11:00.458Z,56.31
2023-03-29T03:13:29.629Z,56.47
2023-03-29T03:15:58.630Z,57.43
2023-03-29T03:18:27.932Z,57.66
2023-03-29T03:20:59.601Z,58.53
2023-03-29T03:23:28.799Z,58.47
2023-03-29T03:25:59.284Z,59.07
2023-03-29T03:28:28.922Z,59.55
2023-03-29T03:30:58.228Z,59.55
2023-03-29T03:33:28.307Z,60.11
2023-03-29T03:36:02.930Z,60.61
2023-03-29T03:38:33.367Z,61.05
2023-03-29T03:41:02.748Z,61.59
2023-03-29T03:43:31.991Z,61.74
2023-03-29T03:46:01.682Z,62.11
2023-03-29T03:48:30.833Z,71.84
2023-03-29T03:50:59.936Z,79.36
2023-03-29T03:53:29.029Z,67.52
2023-03-29T03:55:58.229Z,55.27
2023-03-29T03:58:27.232Z,49.43
2023-03-29T04:00:56.121Z,51.20
2023-03-29T04:03:25.137Z,53.17
2023-03-29T04:05:54.150Z,54.65
2023-03-29T04:08:23.066Z,56.55
2023-03-29T04:10:56.888Z,57.62
2023-03-29T04:13:27.304Z,58.31
2023-03-29T04:15:58.237Z,58.97
2023-03-29T04:18:29.210Z,59.01
2023-03-29T04:20:58.454Z,59.09
2023-03-29T04:23:27.390Z,59.56
2023-03-29T04:25:56.875Z,59.86
2023-03-29T04:28:25.851Z,60.61
2023-03-29T04:30:54.847Z,61.13
2023-03-29T04:33:23.777Z,61.49
2023-03-29T04:35:52.887Z,61.89
2023-03-29T04:38:23.425Z,67.19
2023-03-29T04:40:55.081Z,80.11
2023-03-29T04:43:24.086Z,69.23
2023-03-29T04:45:53.064Z,58.39
2023-03-29T04:48:22.706Z,50.42
2023-03-29T04:50:52.377Z,50.91
2023-03-29T04:53:22.360Z,53.24
2023-03-29T04:55:51.461Z,55.18
2023-03-29T04:58:22.535Z,56.73
2023-03-29T05:00:56.007Z,57.88
2023-03-29T05:03:25.650Z,58.12
2023-03-29T05:05:54.744Z,58.78
2023-03-29T05:08:24.330Z,59.45
2023-03-29T05:10:53.231Z,59.76
2023-03-29T05:13:22.230Z,59.87
2023-03-29T05:15:52.791Z,60.66
2023-03-29T05:18:22.370Z,62.74
2023-03-29T05:20:53.262Z,75.04
2023-03-29T05:23:23.841Z,73.41
2023-03-29T05:25:55.609Z,64.99
2023-03-29T05:28:24.746Z,62.96
2023-03-29T05:31:02.422Z,54.22
2023-03-29T05:33:31.761Z,51.90
2023-03-29T05:36:03.702Z,54.99
2023-03-29T05:38:35.934Z,57.09
2023-03-29T05:41:06.405Z,59.33
2023-03-29T05:43:35.459Z,61.13
2023-03-29T05:46:05.906Z,62.43
2023-03-29T05:48:36.526Z,66.04
2023-03-29T05:51:05.939Z,57.63
2023-03-29T05:53:35.443Z,54.74
2023-03-29T05:56:04.793Z,55.70
2023-03-29T05:58:33.843Z,58.75
2023-03-29T06:01:04.745Z,60.56
2023-03-29T06:03:34.097Z,61.89
2023-03-29T06:06:04.429Z,62.80
2023-03-29T06:08:35.256Z,64.93
2023-03-29T06:11:06.708Z,55.39
2023-03-29T06:13:37.238Z,52.90
2023-03-29T06:16:06.895Z,55.47
2023-03-29T06:18:36.835Z,57.85
2023-03-29T06:21:08.076Z,58.92
2023-03-29T06:23:37.189Z,58.07
2023-03-29T06:26:06.838Z,60.90
2023-03-29T06:28:35.833Z,60.39
2023-03-29T06:31:05.696Z,62.60
2023-03-29T06:33:37.306Z,68.55
2023-03-29T06:36:06.981Z,59.64
2023-03-29T06:38:36.444Z,48.51
2023-03-29T06:41:07.931Z,49.49
2023-03-29T06:43:37.916Z,52.11
2023-03-29T06:46:12.430Z,53.90
2023-03-29T06:48:41.830Z,56.33
2023-03-29T06:51:10.836Z,57.18
2023-03-29T06:53:39.827Z,56.82
2023-03-29T06:56:09.880Z,58.24
2023-03-29T06:58:39.466Z,61.28
2023-03-29T07:01:08.470Z,61.97
2023-03-29T07:03:39.370Z,62.29
2023-03-29T07:06:12.501Z,62.87
2023-03-29T07:08:45.282Z,62.66
2023-03-29T07:11:15.293Z,51.72
2023-03-29T07:13:44.928Z,50.52
2023-03-29T07:16:14.123Z,54.48
2023-03-29T07:18:44.348Z,55.76
2023-03-29T07:21:13.642Z,56.86
2023-03-29T07:23:42.936Z,58.10
2023-03-29T07:26:12.651Z,58.92
2023-03-29T07:28:42.605Z,59.22
2023-03-29T07:31:12.284Z,59.41
2023-03-29T07:33:41.798Z,59.77
2023-03-29T07:36:12.183Z,60.01
2023-03-29T07:38:41.934Z,59.47
2023-03-29T07:41:10.921Z,59.84
2023-03-29T07:43:39.937Z,58.99
2023-03-29T07:46:10.276Z,59.00
2023-03-29T07:48:39.468Z,58.80
2023-03-29T07:51:08.690Z,59.28
2023-03-29T07:53:38.675Z,59.37
2023-03-29T07:56:09.036Z,59.24
2023-03-29T07:58:38.052Z,59.22
2023-03-29T08:01:08.547Z,58.88
2023-03-29T08:03:37.609Z,57.57
2023-03-29T08:06:07.018Z,57.37
2023-03-29T08:08:36.830Z,57.68
2023-03-29T08:11:08.972Z,56.92
2023-03-29T08:13:37.927Z,55.99
2023-03-29T08:16:07.694Z,55.38
2023-03-29T08:18:36.611Z,54.82
2023-03-29T08:21:05.870Z,55.51
2023-03-29T08:23:35.763Z,55.58
2023-03-29T08:26:04.943Z,55.56
2023-03-29T08:28:33.826Z,55.14
2023-03-29T08:31:03.101Z,54.93
2023-03-29T08:33:32.594Z,54.09
2023-03-29T08:36:02.098Z,54.17
2023-03-29T08:38:31.184Z,54.21
2023-03-29T08:41:00.959Z,54.15
2023-03-29T08:43:36.121Z,54.49
2023-03-29T08:46:40.658Z,54.33
2023-03-29T08:49:12.519Z,53.96
2023-03-29T08:51:47.884Z,53.43
2023-03-29T08:54:28.262Z,53.17
2023-03-29T08:57:08.572Z,53.46
2023-03-29T08:59:39.618Z,52.77
2023-03-29T09:02:17.886Z,52.15
2023-03-29T09:04:48.701Z,52.06
2023-03-29T09:07:17.871Z,52.00
2023-03-29T09:09:46.894Z,51.57
2023-03-29T09:12:48.911Z,51.31
2023-03-29T09:15:42.566Z,50.72
2023-03-29T09:18:22.088Z,50.39
2023-03-29T09:20:59.141Z,50.17
2023-03-29T09:23:58.287Z,50.24
2023-03-29T09:26:59.728Z,49.76
2023-03-29T09:29:37.751Z,48.63
2023-03-29T09:32:19.705Z,48.54
2023-03-29T09:35:14.437Z,48.87
2023-03-29T09:37:43.395Z,49.34
2023-03-29T09:40:17.807Z,48.75
2023-03-29T09:42:51.151Z,48.64
2023-03-29T09:45:20.321Z,48.89
2023-03-29T09:47:58.201Z,48.71
2023-03-29T09:50:35.406Z,48.70
2023-03-29T09:53:05.627Z,48.09
2023-03-29T09:55:37.343Z,47.51
2023-03-29T09:58:32.933Z,47.25
2023-03-29T10:01:08.919Z,47.61
2023-03-29T10:03:39.963Z,47.50
2023-03-29T10:06:12.674Z,47.37
2023-03-29T10:08:51.838Z,47.35
2023-03-29T10:11:29.006Z,46.14
2023-03-29T10:14:03.089Z,46.16
2023-03-29T10:16:42.534Z,45.17
2023-03-29T10:19:23.365Z,45.20
2023-03-29T10:21:54.077Z,45.86
2023-03-29T10:24:25.746Z,46.14
2023-03-29T10:27:00.244Z,46.44
2023-03-29T10:29:42.721Z,45.92
2023-03-29T10:32:17.540Z,45.48
2023-03-29T10:34:47.931Z,45.88
2023-03-29T10:37:19.666Z,45.10
2023-03-29T10:39:49.132Z,45.84
2023-03-29T10:42:23.792Z,46.08
2023-03-29T10:44:58.442Z,46.29
2023-03-29T10:47:31.743Z,46.40
2023-03-29T10:50:01.628Z,46.09
2023-03-29T10:52:30.609Z,45.51
2023-03-29T10:55:00.556Z,45.38
2023-03-29T10:57:58.827Z,45.66
2023-03-29T11:00:56.956Z,45.62
2023-03-29T11:03:33.930Z,45.89
2023-03-29T11:06:21.156Z,45.66
2023-03-29T11:08:57.610Z,45.20
2023-03-29T11:11:47.981Z,44.79
2023-03-29T11:14:41.453Z,44.68
2023-03-29T11:17:19.492Z,43.04
2023-03-29T11:19:56.650Z,43.58
2023-03-29T11:22:36.584Z,43.97
2023-03-29T11:25:30.188Z,44.11
2023-03-29T11:28:05.266Z,44.50
2023-03-29T11:30:48.451Z,43.72
2023-03-29T11:33:34.633Z,43.37
2023-03-29T11:36:33.841Z,43.42
2023-03-29T11:39:22.313Z,43.61
2023-03-29T11:41:56.431Z,43.28
2023-03-29T11:44:30.529Z,41.83
2023-03-29T11:47:05.173Z,41.36
2023-03-29T11:49:41.852Z,41.56
2023-03-29T11:52:24.559Z,41.21
2023-03-29T11:54:56.172Z,41.17
2023-03-29T11:57:39.146Z,41.55
2023-03-29T12:00:15.795Z,41.48
2023-03-29T12:02:48.288Z,41.94
2023-03-29T12:05:27.510Z,41.40
2023-03-29T12:08:00.086Z,41.38
2023-03-29T12:11:01.539Z,41.16
2023-03-29T12:13:36.905Z,40.04
2023-03-29T12:16:23.958Z,39.69
2023-03-29T12:18:58.283Z,39.55
2023-03-29T12:21:30.054Z,39.77
2023-03-29T12:23:59.037Z,39.58
2023-03-29T12:26:46.036Z,38.66
2023-03-29T12:29:33.791Z,38.12
2023-03-29T12:32:15.089Z,37.38
2023-03-29T12:34:53.102Z,37.30
2023-03-29T12:37:36.293Z,37.70
2023-03-29T12:40:17.744Z,37.89
2023-03-29T12:43:07.046Z,38.08
2023-03-29T12:45:43.049Z,38.14
2023-03-29T12:48:19.051Z,37.96
2023-03-29T12:51:01.224Z,38.48
2023-03-29T12:53:43.491Z,38.97
2023-03-29T12:56:16.357Z,39.05
2023-03-29T12:59:17.745Z,39.16
2023-03-29T13:02:00.294Z,39.38
2023-03-29T13:05:25.077Z,39.54
2023-03-29T13:07:56.092Z,39.73
2023-03-29T13:10:37.891Z,40.03
2023-03-29T13:13:30.913Z,40.42
2023-03-29T13:16:18.819Z,40.71
2023-03-29T13:19:08.268Z,41.03
2023-03-29T13:21:46.556Z,41.17
2023-03-29T13:25:04.422Z,41.05
2023-03-29T13:27:48.835Z,41.64
2023-03-29T13:30:46.190Z,41.40
2023-03-29T13:33:38.266Z,41.09
2023-03-29T13:36:37.585Z,40.74
2023-03-29T13:39:07.612Z,40.55
2023-03-29T13:41:39.098Z,40.46
2023-03-29T13:44:38.913Z,40.41
2023-03-29T13:47:19.687Z,40.31
2023-03-29T13:49:54.791Z,40.33
2023-03-29T13:52:51.403Z,40.79
2023-03-29T13:55:27.055Z,40.63
2023-03-29T13:58:02.779Z,40.89
2023-03-29T14:00:40.180Z,40.63
2023-03-29T14:03:15.652Z,40.62
2023-03-29T14:05:50.816Z,40.52
2023-03-29T14:08:39.455Z,40.73
2023-03-29T14:11:19.916Z,41.05
2023-03-29T14:13:52.835Z,41.53
2023-03-29T14:16:22.249Z,41.99
2023-03-29T14:18:52.367Z,42.23
2023-03-29T14:21:21.750Z,42.46
2023-03-29T14:23:55.859Z,42.72
2023-03-29T14:26:30.682Z,42.76
2023-03-29T14:29:01.468Z,42.84
2023-03-29T14:31:33.554Z,43.03
2023-03-29T14:34:06.812Z,43.45
2023-03-29T14:36:36.495Z,43.49
2023-03-29T14:39:23.840Z,43.66
2023-03-29T14:41:59.675Z,43.60
2023-03-29T14:44:33.233Z,43.58
2023-03-29T14:47:03.414Z,43.66
2023-03-29T14:49:32.747Z,43.86
2023-03-29T14:52:02.351Z,43.94
2023-03-29T14:54:34.867Z,44.02
2023-03-29T14:57:07.403Z,44.12
2023-03-29T14:59:42.931Z,44.33
2023-03-29T15:02:48.590Z,44.45
2023-03-29T15:06:04.215Z,44.72
2023-03-29T15:08:38.578Z,44.79
2023-03-29T15:11:18.929Z,44.88
2023-03-29T15:13:49.305Z,45.10
2023-03-29T15:16:22.799Z,44.49
2023-03-29T15:18:53.027Z,44.54
2023-03-29T15:21:23.008Z,44.81
2023-03-29T15:24:03.429Z,44.81
2023-03-29T15:26:35.324Z,44.94
2023-03-29T15:29:23.335Z,45.09
2023-03-29T15:31:57.411Z,45.25
2023-03-29T15:34:29.537Z,45.14
2023-03-29T15:36:59.207Z,45.13
2023-03-29T15:39:29.593Z,44.95
2023-03-29T15:41:58.786Z,45.00
2023-03-29T15:44:32.555Z,44.95
2023-03-29T15:47:01.657Z,44.66
2023-03-29T15:49:30.789Z,44.54
2023-03-29T15:51:59.723Z,44.68
2023-03-29T15:54:31.132Z,44.77
2023-03-29T15:57:07.362Z,44.96
2023-03-29T15:59:36.691Z,45.24
2023-03-29T16:02:06.389Z,45.55
2023-03-29T16:04:35.414Z,45.71
2023-03-29T16:07:10.962Z,45.75
2023-03-29T16:09:39.929Z,45.85
2023-03-29T16:12:10.334Z,45.97
2023-03-29T16:14:39.586Z,46.10
2023-03-29T16:17:08.454Z,46.22
2023-03-29T16:19:37.819Z,46.52
2023-03-29T16:22:07.592Z,46.69
2023-03-29T16:24:36.860Z,46.66
2023-03-29T16:27:05.922Z,47.13
2023-03-29T16:29:35.067Z,47.14
2023-03-29T16:32:06.620Z,47.38
2023-03-29T16:34:36.119Z,47.57
2023-03-29T16:37:05.166Z,47.69
2023-03-29T16:39:34.479Z,47.72
2023-03-29T16:42:04.007Z,48.23
2023-03-29T16:44:32.933Z,48.49
2023-03-29T16:47:02.180Z,48.65
2023-03-29T16:49:31.381Z,48.65
2023-03-29T16:52:00.256Z,49.01
2023-03-29T16:54:29.735Z,49.16
2023-03-29T16:56:59.040Z,49.12
2023-03-29T16:59:27.983Z,49.42
2023-03-29T17:01:57.025Z,49.77
2023-03-29T17:04:26.461Z,49.92
2023-03-29T17:06:55.834Z,49.98
2023-03-29T17:09:25.812Z,50.07
2023-03-29T17:11:56.140Z,50.36
2023-03-29T17:14:25.589Z,50.67
2023-03-29T17:16:54.542Z,50.73
2023-03-29T17:19:23.465Z,50.85
2023-03-29T17:21:52.398Z,50.92
2023-03-29T17:24:21.469Z,51.16
2023-03-29T17:26:50.633Z,51.54
2023-03-29T17:29:19.630Z,51.63
2023-03-29T17:31:48.678Z,51.70
2023-03-29T17:34:19.420Z,51.93
2023-03-29T17:36:49.110Z,52.02
2023-03-29T17:39:18.879Z,52.11
2023-03-29T17:41:48.210Z,52.32
2023-03-29T17:44:17.230Z,52.47
2023-03-29T17:46:46.791Z,52.61
2023-03-29T17:49:15.809Z,52.62
2023-03-29T17:51:44.808Z,52.85
2023-03-29T17:54:13.802Z,52.88
2023-03-29T17:56:42.817Z,53.09
2023-03-29T17:59:11.802Z,53.40
2023-03-29T18:01:40.932Z,53.55
2023-03-29T18:04:10.717Z,53.70
2023-03-29T18:06:39.817Z,53.98
2023-03-29T18:09:10.395Z,54.17
2023-03-29T18:11:39.526Z,54.35
2023-03-29T18:14:08.429Z,54.74
2023-03-29T18:16:37.473Z,54.99
2023-03-29T18:19:06.543Z,55.86
2023-03-29T18:21:35.563Z,56.03
2023-03-29T18:24:04.555Z,56.21
2023-03-29T18:26:33.572Z,55.94
2023-03-29T18:29:02.463Z,56.51
2023-03-29T18:31:31.418Z,56.56
2023-03-29T18:34:00.615Z,57.13
2023-03-29T18:36:30.477Z,56.91
2023-03-29T18:39:05.826Z,57.34
2023-03-29T18:41:37.304Z,57.17
2023-03-29T18:44:07.875Z,57.36
2023-03-29T18:46:37.311Z,57.59
2023-03-29T18:49:07.876Z,57.84
2023-03-29T18:51:36.832Z,57.69
2023-03-29T18:54:06.171Z,57.68
2023-03-29T18:56:36.007Z,57.67
2023-03-29T18:59:06.504Z,57.81
2023-03-29T19:01:35.973Z,58.02
2023-03-29T19:04:05.716Z,58.09
2023-03-29T19:06:34.753Z,58.07
2023-03-29T19:09:05.477Z,58.08
2023-03-29T19:11:36.137Z,58.13
2023-03-29T19:14:08.373Z,58.26
2023-03-29T19:16:37.357Z,58.31
2023-03-29T19:19:07.293Z,58.26
2023-03-29T19:21:36.940Z,58.32
2023-03-29T19:24:07.861Z,58.32
2023-03-29T19:26:37.441Z,58.39
2023-03-29T19:29:06.401Z,58.43
2023-03-29T19:31:37.924Z,58.52
2023-03-29T19:34:09.677Z,58.69
2023-03-29T19:36:38.775Z,58.69
2023-03-29T19:39:07.751Z,58.83
2023-03-29T19:41:36.738Z,58.93
2023-03-29T19:44:05.923Z,59.05
2023-03-29T19:46:34.929Z,59.17
2023-03-29T19:49:05.675Z,59.31
2023-03-29T19:51:34.774Z,59.51
2023-03-29T19:54:03.844Z,59.50
2023-03-29T19:56:33.457Z,59.74
2023-03-29T19:59:02.449Z,59.71
2023-03-29T20:01:32.444Z,59.61
2023-03-29T20:04:02.605Z,59.72
2023-03-29T20:06:31.693Z,59.75
2023-03-29T20:09:00.701Z,59.92
2023-03-29T20:11:29.693Z,59.95
2023-03-29T20:13:58.692Z,59.98
2023-03-29T20:16:27.810Z,60.11
2023-03-29T20:18:56.804Z,60.09
2023-03-29T20:21:25.714Z,60.15
2023-03-29T20:23:56.144Z,60.20
2023-03-29T20:26:25.630Z,60.28
2023-03-29T20:28:54.553Z,60.49
2023-03-29T20:31:23.864Z,60.46
2023-03-29T20:33:53.644Z,60.54
2023-03-29T20:36:23.476Z,60.62
2023-03-29T20:38:55.328Z,60.72
2023-03-29T20:41:24.405Z,60.97
2023-03-29T20:43:59.034Z,60.93
2023-03-29T20:46:35.072Z,61.07
2023-03-29T20:49:07.434Z,61.16
2023-03-29T20:51:38.001Z,61.31
2023-03-29T20:54:10.032Z,61.32
2023-03-29T20:56:40.163Z,61.35
2023-03-29T20:59:12.250Z,61.44
2023-03-29T21:01:42.489Z,61.62
2023-03-29T21:04:11.536Z,61.64
2023-03-29T21:06:40.514Z,61.68
2023-03-29T21:09:09.478Z,61.75
2023-03-29T21:11:38.680Z,61.83
2023-03-29T21:14:09.554Z,61.87
2023-03-29T21:16:41.912Z,61.85
2023-03-29T21:19:11.004Z,61.91
2023-03-29T21:21:41.647Z,62.06
2023-03-29T21:24:13.547Z,62.09
2023-03-29T21:26:42.594Z,62.14
2023-03-29T21:29:11.589Z,62.68
2023-03-29T21:31:40.952Z,75.80
2023-03-29T21:34:10.203Z,70.65
2023-03-29T21:36:39.910Z,61.18
2023-03-29T21:39:08.804Z,52.82
2023-03-29T21:41:37.870Z,50.84
2023-03-29T21:44:07.012Z,51.81
2023-03-29T21:46:36.155Z,52.74
2023-03-29T21:49:05.180Z,53.60
2023-03-29T21:51:34.197Z,55.23
2023-03-29T21:54:03.402Z,55.67
2023-03-29T21:56:32.335Z,56.45
2023-03-29T21:59:01.401Z,57.00
2023-03-29T22:01:31.063Z,57.42
2023-03-29T22:04:00.020Z,58.54
2023-03-29T22:06:29.005Z,59.05
2023-03-29T22:09:00.885Z,59.47
2023-03-29T22:11:31.197Z,59.95
2023-03-29T22:14:00.309Z,60.44
2023-03-29T22:16:31.497Z,60.79
2023-03-29T22:19:00.539Z,61.19
2023-03-29T22:21:32.606Z,61.74
2023-03-29T22:24:01.726Z,71.01
2023-03-29T22:26:32.654Z,73.81
2023-03-29T22:29:01.728Z,63.63
2023-03-29T22:31:32.020Z,55.54
2023-03-29T22:34:02.871Z,52.87
2023-03-29T22:36:32.011Z,53.68
2023-03-29T22:39:00.990Z,55.06
2023-03-29T22:41:30.109Z,56.32
2023-03-29T22:44:02.893Z,57.36
2023-03-29T22:46:31.992Z,58.44
2023-03-29T22:49:00.991Z,59.44
2023-03-29T22:51:30.099Z,59.40
2023-03-29T22:53:59.495Z,59.64
2023-03-29T22:56:28.703Z,60.43
2023-03-29T22:58:57.564Z,60.69
2023-03-29T23:01:26.757Z,61.05
2023-03-29T23:03:55.799Z,61.43
2023-03-29T23:06:24.770Z,69.15
2023-03-29T23:08:53.727Z,71.87
2023-03-29T23:11:22.939Z,62.78
2023-03-29T23:13:52.629Z,54.51
2023-03-29T23:16:21.820Z,52.16
2023-03-29T23:18:50.875Z,53.31
2023-03-29T23:21:19.769Z,54.78
2023-03-29T23:23:49.514Z,55.72
2023-03-29T23:26:18.645Z,57.00
2023-03-29T23:28:47.629Z,57.89
2023-03-29T23:31:18.718Z,58.59
2023-03-29T23:33:47.755Z,59.45
2023-03-29T23:36:18.363Z,59.47
2023-03-29T23:38:47.989Z,59.87
2023-03-29T23:41:17.876Z,60.37
2023-03-29T23:43:50.222Z,60.66
2023-03-29T23:46:29.167Z,61.28
2023-03-29T23:49:00.059Z,70.86
2023-03-29T23:51:30.745Z,70.66
2023-03-29T23:53:59.611Z,61.68
2023-03-29T23:56:29.128Z,54.88
2023-03-29T23:58:58.077Z,52.00
